Time;durP1;ratioP1;P1;durP2;ratioP2;P2;SDS_P1;SDS_P2;PMS_P1;PMS_P2;Temp;Humidity;BMP_temperature;BMP_pressure;BME280_temperature;BME280_humidity;BME280_pressure;Samples;Min_cycle;Max_cycle;Signal;HPM_P1;HPM_P2
2022/02/02 00:00:38;;;;;;;16.53;9.70;;;;;;;;;;5100695;28;20442;-71
2022/02/02 00:03:09;;;;;;;12.10;8.57;;;;;;;;;;5101032;28;20447;-71
2022/02/02 00:05:49;;;;;;;11.83;8.10;;;;;;;;;;5101214;28;20446;-71
2022/02/02 00:08:23;;;;;;;13.37;9.00;;;;;;;;;;5101170;28;20918;-72
2022/02/02 00:13:57;;;;;;;11.97;8.13;;;;;;;;;;5075859;28;20489;-71
2022/02/02 00:16:43;;;;;;;12.87;9.03;;;;;;;;;;5100914;28;20470;-71
2022/02/02 00:19:19;;;;;;;11.20;8.00;;;;;;;;;;5100225;28;20451;-71
2022/02/02 00:21:48;;;;;;;11.67;8.80;;;;;;;;;;5100609;28;20813;-72
2022/02/02 00:24:23;;;;;;;10.60;8.20;;;;;;;;;;5102568;28;20459;-72
2022/02/02 00:26:54;;;;;;;13.17;8.57;;;;;;;;;;5121123;28;20462;-72
2022/02/02 00:29:31;;;;;;;12.40;7.93;;;;;;;;;;5115816;28;20449;-72
2022/02/02 00:32:06;;;;;;;13.83;8.60;;;;;;;;;;5120728;28;20448;-72
2022/02/02 00:34:34;;;;;;;11.80;8.27;;;;;;;;;;5115775;28;20475;-72
2022/02/02 00:37:02;;;;;;;12.23;8.40;;;;;;;;;;5100360;28;20488;-72
2022/02/02 00:39:30;;;;;;;11.87;8.50;;;;;;;;;;5107769;28;20447;-71
2022/02/02 00:41:59;;;;;;;11.10;8.30;;;;;;;;;;5100544;28;20450;-71
2022/02/02 00:44:28;;;;;;;13.63;9.37;;;;;;;;;;5100041;28;20446;-71
2022/02/02 00:46:57;;;;;;;13.00;8.63;;;;;;;;;;5100312;28;20535;-71
2022/02/02 00:49:25;;;;;;;13.37;9.03;;;;;;;;;;5104554;28;20449;-72
2022/02/02 00:51:57;;;;;;;14.40;8.93;;;;;;;;;;5120434;28;20953;-71
2022/02/02 00:54:28;;;;;;;13.50;9.43;;;;;;;;;;5119932;27;20470;-71
2022/02/02 00:56:56;;;;;;;13.37;9.97;;;;;;;;;;5120313;28;20455;-71
2022/02/02 00:59:24;;;;;;;12.57;8.77;;;;;;;;;;5100278;28;20457;-71
2022/02/02 01:01:54;;;;;;;13.80;9.80;;;;;;;;;;5100096;28;20439;-72
2022/02/02 01:04:22;;;;;;;14.97;10.23;;;;;;;;;;5099890;28;20448;-71
2022/02/02 01:06:57;;;;;;;13.30;9.37;;;;;;;;;;5099880;28;20466;-71
2022/02/02 01:09:30;;;;;;;13.67;9.80;;;;;;;;;;5100083;28;20522;-72
2022/02/02 01:17:59;;;;;;;14.50;10.13;;;;;;;;;;5099284;28;20463;-71
2022/02/02 01:20:40;;;;;;;13.43;10.23;;;;;;;;;;5112785;28;20461;-72
2022/02/02 01:28:40;;;;;;;13.03;8.43;;;;;;;;;;5099322;28;20449;-71
2022/02/02 01:31:11;;;;;;;11.80;9.47;;;;;;;;;;5099573;28;21014;-71
2022/02/02 01:33:41;;;;;;;14.40;9.57;;;;;;;;;;5099207;28;20445;-71
2022/02/02 01:36:09;;;;;;;13.87;8.93;;;;;;;;;;5118752;28;20483;-72
2022/02/02 01:38:38;;;;;;;13.00;9.10;;;;;;;;;;5113322;28;20487;-71
2022/02/02 01:41:10;;;;;;;12.67;9.87;;;;;;;;;;5099316;28;20965;-72
2022/02/02 01:43:44;;;;;;;12.43;9.40;;;;;;;;;;5099068;28;20448;-72
2022/02/02 01:46:17;;;;;;;12.13;9.30;;;;;;;;;;5099178;28;20455;-72
2022/02/02 01:48:54;;;;;;;14.07;9.63;;;;;;;;;;5098767;28;20450;-71
2022/02/02 01:54:18;;;;;;;14.20;9.20;;;;;;;;;;5099170;28;20450;-72
2022/02/02 01:56:46;;;;;;;11.20;9.30;;;;;;;;;;5115308;28;20492;-72
2022/02/02 01:59:24;;;;;;;13.50;9.67;;;;;;;;;;5100193;28;20564;-72
2022/02/02 02:01:52;;;;;;;10.77;9.10;;;;;;;;;;5098960;28;20447;-72
2022/02/02 02:04:22;;;;;;;13.60;9.33;;;;;;;;;;5098458;28;20959;-71
2022/02/02 02:06:50;;;;;;;12.67;8.87;;;;;;;;;;5098789;28;20563;-72
2022/02/02 02:09:19;;;;;;;11.53;9.03;;;;;;;;;;5098903;28;20456;-71
2022/02/02 02:11:55;;;;;;;14.80;10.20;;;;;;;;;;5098793;28;20527;-72
2022/02/02 02:17:10;;;;;;;14.73;9.73;;;;;;;;;;5098170;28;20974;-72
2022/02/02 02:19:43;;;;;;;14.47;9.33;;;;;;;;;;5098524;28;20455;-71
2022/02/02 02:22:14;;;;;;;13.50;9.60;;;;;;;;;;5098539;28;20439;-72
2022/02/02 02:24:44;;;;;;;13.83;10.23;;;;;;;;;;5098683;28;20943;-72
2022/02/02 02:27:16;;;;;;;13.27;9.73;;;;;;;;;;5098151;28;20460;-72
2022/02/02 02:32:59;;;;;;;12.27;9.07;;;;;;;;;;5114753;28;20474;-71
2022/02/02 02:57:42;;;;;;;12.13;9.37;;;;;;;;;;5098223;28;20494;-71
2022/02/02 03:00:31;;;;;;;17.33;9.80;;;;;;;;;;5108215;28;20458;-71
2022/02/02 03:14:50;;;;;;;14.00;10.07;;;;;;;;;;5117616;28;20960;-72
2022/02/02 03:31:15;;;;;;;14.50;10.10;;;;;;;;;;5097815;28;20443;-71
2022/02/02 03:51:04;;;;;;;15.53;9.43;;;;;;;;;;5097319;28;20443;-71
2022/02/02 03:53:56;;;;;;;15.23;9.83;;;;;;;;;;5097168;28;20452;-72
2022/02/02 03:59:32;;;;;;;12.00;9.80;;;;;;;;;;5098773;28;20530;-72
2022/02/02 04:04:54;;;;;;;16.27;10.10;;;;;;;;;;5095939;28;20447;-72
2022/02/02 04:07:28;;;;;;;13.80;10.33;;;;;;;;;;5108836;28;20800;-71
2022/02/02 04:10:02;;;;;;;13.67;9.57;;;;;;;;;;5104694;28;20446;-72
2022/02/02 04:12:42;;;;;;;11.47;8.90;;;;;;;;;;5101132;28;20450;-72
2022/02/02 04:37:39;;;;;;;15.03;9.83;;;;;;;;;;5100330;28;20487;-71
2022/02/02 04:54:24;;;;;;;15.00;10.53;;;;;;;;;;5067061;28;20464;-71
2022/02/02 04:57:35;;;;;;;15.37;10.47;;;;;;;;;;5077424;28;20487;-71
2022/02/02 05:06:05;;;;;;;13.83;9.47;;;;;;;;;;5094872;28;20908;-71
2022/02/02 05:08:39;;;;;;;11.77;9.27;;;;;;;;;;5100086;28;20492;-72
2022/02/02 05:11:27;;;;;;;14.83;10.57;;;;;;;;;;5099671;28;20442;-71
2022/02/02 05:16:56;;;;;;;13.53;9.20;;;;;;;;;;5097322;28;20483;-72
2022/02/02 05:19:57;;;;;;;12.40;9.00;;;;;;;;;;5099694;28;20452;-71
2022/02/02 05:26:02;;;;;;;14.90;9.27;;;;;;;;;;5116431;28;20461;-72
2022/02/02 05:50:51;;;;;;;12.17;9.13;;;;;;;;;;5116068;27;20938;-72
2022/02/02 05:53:20;;;;;;;15.47;9.37;;;;;;;;;;5119565;28;20442;-72
2022/02/02 05:55:49;;;;;;;13.20;8.50;;;;;;;;;;5117566;28;20439;-72
2022/02/02 05:58:20;;;;;;;14.17;9.17;;;;;;;;;;5106797;28;20440;-72
2022/02/02 06:00:50;;;;;;;13.27;8.33;;;;;;;;;;5103279;28;20446;-71
2022/02/02 06:03:18;;;;;;;12.70;8.87;;;;;;;;;;5116198;28;20964;-72
2022/02/02 06:05:46;;;;;;;13.40;9.40;;;;;;;;;;5098897;28;20940;-72
2022/02/02 06:08:15;;;;;;;11.90;9.23;;;;;;;;;;5098576;28;20444;-72
2022/02/02 06:10:44;;;;;;;12.20;9.00;;;;;;;;;;5098183;28;20450;-71
2022/02/02 06:13:12;;;;;;;16.03;9.63;;;;;;;;;;5098579;28;20436;-72
2022/02/02 06:15:40;;;;;;;13.00;9.00;;;;;;;;;;5098564;28;20448;-71
2022/02/02 06:18:09;;;;;;;11.43;9.17;;;;;;;;;;5098084;28;20486;-72
2022/02/02 06:20:38;;;;;;;12.70;9.00;;;;;;;;;;5098439;28;20454;-72
2022/02/02 06:23:12;;;;;;;13.60;9.33;;;;;;;;;;5098514;28;20519;-72
2022/02/02 06:25:42;;;;;;;15.10;9.20;;;;;;;;;;5098215;28;20452;-72
2022/02/02 06:28:12;;;;;;;13.00;9.53;;;;;;;;;;5116281;28;20780;-72
2022/02/02 06:30:40;;;;;;;14.20;9.17;;;;;;;;;;5112019;28;20447;-71
2022/02/02 06:33:11;;;;;;;11.80;8.63;;;;;;;;;;5098094;28;20439;-72
2022/02/02 06:35:39;;;;;;;13.17;9.73;;;;;;;;;;5098512;28;20528;-71
2022/02/02 06:38:07;;;;;;;14.93;9.47;;;;;;;;;;5109763;28;20552;-71
2022/02/02 06:40:37;;;;;;;13.87;9.70;;;;;;;;;;5098928;28;20531;-71
2022/02/02 06:43:05;;;;;;;16.77;9.53;;;;;;;;;;5098209;28;20447;-72
2022/02/02 06:45:34;;;;;;;17.53;9.57;;;;;;;;;;5097890;28;20931;-72
2022/02/02 06:48:02;;;;;;;14.73;9.70;;;;;;;;;;5097925;28;20439;-72
2022/02/02 06:50:36;;;;;;;16.77;8.97;;;;;;;;;;5098323;28;20507;-71
2022/02/02 06:53:13;;;;;;;15.80;10.30;;;;;;;;;;5097871;28;20535;-71
2022/02/02 06:55:49;;;;;;;17.87;10.27;;;;;;;;;;5105509;28;20442;-72
2022/02/02 06:58:28;;;;;;;16.20;10.50;;;;;;;;;;5100773;28;20487;-72
2022/02/02 07:01:09;;;;;;;17.47;9.47;;;;;;;;;;5097852;28;20794;-72
2022/02/02 07:03:57;;;;;;;16.53;10.03;;;;;;;;;;5101833;28;20504;-71
2022/02/02 07:06:41;;;;;;;14.57;10.47;;;;;;;;;;5118125;28;20469;-72
2022/02/02 07:09:22;;;;;;;14.53;10.43;;;;;;;;;;5109320;28;20451;-71
2022/02/02 07:12:05;;;;;;;15.73;10.33;;;;;;;;;;5097852;28;20443;-71
2022/02/02 07:14:54;;;;;;;13.97;9.13;;;;;;;;;;5110568;28;20451;-72
2022/02/02 07:17:37;;;;;;;18.63;10.03;;;;;;;;;;5117993;28;20487;-71
2022/02/02 07:20:13;;;;;;;17.23;10.30;;;;;;;;;;5100122;28;20790;-72
2022/02/02 07:28:23;;;;;;;16.90;9.17;;;;;;;;;;5093935;28;20452;-72
2022/02/02 07:30:58;;;;;;;12.13;8.50;;;;;;;;;;5097610;28;20450;-71
2022/02/02 07:33:34;;;;;;;17.30;11.10;;;;;;;;;;5097355;28;20469;-72
2022/02/02 07:36:08;;;;;;;13.10;8.90;;;;;;;;;;5097374;28;20479;-72
2022/02/02 07:38:45;;;;;;;14.93;9.03;;;;;;;;;;5104455;28;21006;-72
2022/02/02 07:41:19;;;;;;;13.83;7.87;;;;;;;;;;5120929;28;20522;-72
2022/02/02 07:43:50;;;;;;;12.67;8.13;;;;;;;;;;5121931;28;20447;-71
2022/02/02 07:46:19;;;;;;;10.73;7.53;;;;;;;;;;5120535;28;20470;-71
2022/02/02 07:48:49;;;;;;;11.20;7.67;;;;;;;;;;5102531;28;20447;-72
2022/02/02 07:51:17;;;;;;;15.53;8.80;;;;;;;;;;5101409;28;20439;-71
2022/02/02 07:53:50;;;;;;;10.67;7.60;;;;;;;;;;5119093;28;20461;-72
2022/02/02 07:56:40;;;;;;;15.03;7.90;;;;;;;;;;5120066;28;20489;-71
2022/02/02 07:59:16;;;;;;;10.60;7.97;;;;;;;;;;5100984;28;20488;-71
2022/02/02 08:01:46;;;;;;;12.90;8.43;;;;;;;;;;5100764;28;20804;-71
2022/02/02 08:04:15;;;;;;;11.30;7.67;;;;;;;;;;5101087;28;20993;-71
2022/02/02 08:06:49;;;;;;;11.63;8.17;;;;;;;;;;5100933;28;20985;-71
2022/02/02 08:09:27;;;;;;;15.60;8.07;;;;;;;;;;5101181;28;20535;-71
2022/02/02 08:11:57;;;;;;;11.43;8.27;;;;;;;;;;5100812;28;20827;-71
2022/02/02 08:14:32;;;;;;;10.87;7.70;;;;;;;;;;5100895;28;20533;-71
2022/02/02 08:16:59;;;;;;;11.73;8.33;;;;;;;;;;5100856;28;20467;-71
2022/02/02 08:19:28;;;;;;;12.07;8.80;;;;;;;;;;5100689;28;21025;-71
2022/02/02 08:21:56;;;;;;;14.30;8.13;;;;;;;;;;5100660;28;20523;-71
2022/02/02 08:24:27;;;;;;;15.67;8.27;;;;;;;;;;5100811;28;20439;-71
2022/02/02 08:26:55;;;;;;;12.27;7.77;;;;;;;;;;5100555;28;20467;-71
2022/02/02 08:29:24;;;;;;;11.33;7.30;;;;;;;;;;5100218;28;20478;-71
2022/02/02 08:31:52;;;;;;;12.17;8.43;;;;;;;;;;5100611;28;20522;-71
2022/02/02 08:34:20;;;;;;;13.87;7.97;;;;;;;;;;5100452;28;20451;-71
2022/02/02 08:36:52;;;;;;;13.97;8.50;;;;;;;;;;5118568;28;20478;-71
2022/02/02 08:39:28;;;;;;;13.20;8.53;;;;;;;;;;5108772;28;20479;-72
2022/02/02 08:42:03;;;;;;;13.47;8.53;;;;;;;;;;5099779;28;20475;-71
2022/02/02 08:44:42;;;;;;;14.70;9.37;;;;;;;;;;5100111;28;20449;-71
2022/02/02 08:47:13;;;;;;;15.13;9.60;;;;;;;;;;5100116;28;20471;-72
2022/02/02 08:49:49;;;;;;;12.50;8.37;;;;;;;;;;5098732;28;20476;-71
2022/02/02 08:52:17;;;;;;;11.80;8.10;;;;;;;;;;5100020;28;20450;-71
2022/02/02 08:54:55;;;;;;;11.30;8.47;;;;;;;;;;5100138;28;20456;-71
2022/02/02 08:57:41;;;;;;;11.83;8.37;;;;;;;;;;5105254;28;20467;-72
2022/02/02 09:00:12;;;;;;;12.77;8.30;;;;;;;;;;5100090;28;20452;-71
2022/02/02 09:02:53;;;;;;;13.20;7.93;;;;;;;;;;5100024;28;20554;-71
2022/02/02 09:05:21;;;;;;;11.63;7.50;;;;;;;;;;5099839;28;20444;-72
2022/02/02 09:08:09;;;;;;;12.63;8.40;;;;;;;;;;5099511;28;20534;-71
2022/02/02 09:22:50;;;;;;;10.00;7.60;;;;;;;;;;5106637;28;20445;-71
2022/02/02 09:25:08;;;;;;;9.77;7.13;;;;;;;;;;5118615;28;20442;-71
2022/02/02 09:33:39;;;;;;;18.07;10.37;;;;;;;;;;5119205;28;20438;-71
2022/02/02 09:36:07;;;;;;;15.40;10.07;;;;;;;;;;5119296;27;20470;-71
2022/02/02 09:38:35;;;;;;;15.20;9.57;;;;;;;;;;5118838;28;20848;-71
2022/02/02 09:41:34;;;;;;;14.63;10.20;;;;;;;;;;5119799;28;20443;-71
2022/02/02 09:44:05;;;;;;;14.37;9.93;;;;;;;;;;5119175;28;20467;-71
2022/02/02 09:46:41;;;;;;;13.43;9.00;;;;;;;;;;5119557;28;20469;-71
2022/02/02 09:49:14;;;;;;;12.17;9.33;;;;;;;;;;5118647;27;20449;-71
2022/02/02 09:51:47;;;;;;;12.13;8.27;;;;;;;;;;5119442;28;20442;-72
2022/02/02 09:54:20;;;;;;;11.33;9.07;;;;;;;;;;5119222;28;20452;-71
2022/02/02 09:57:29;;;;;;;13.77;8.77;;;;;;;;;;5113760;28;20460;-71
2022/02/02 10:03:33;;;;;;;14.27;9.17;;;;;;;;;;5091100;28;20488;-71
2022/02/02 10:06:06;;;;;;;12.10;9.47;;;;;;;;;;5098561;28;20463;-71
2022/02/02 10:08:58;;;;;;;16.30;9.30;;;;;;;;;;5098819;28;20943;-71
2022/02/02 10:14:15;;;;;;;10.87;8.00;;;;;;;;;;5089222;28;20448;-72
2022/02/02 10:16:44;;;;;;;12.10;8.27;;;;;;;;;;5098746;28;20463;-71
2022/02/02 10:19:14;;;;;;;14.27;9.27;;;;;;;;;;5107714;28;20484;-71
2022/02/02 10:21:43;;;;;;;15.77;9.60;;;;;;;;;;5118972;28;20443;-71
2022/02/02 10:24:11;;;;;;;11.70;8.17;;;;;;;;;;5107545;28;20817;-71
2022/02/02 10:26:45;;;;;;;11.90;7.97;;;;;;;;;;5098198;28;20225;-71
2022/02/02 10:29:15;;;;;;;12.73;8.27;;;;;;;;;;5098789;28;20197;-71
2022/02/02 10:31:44;;;;;;;17.83;8.17;;;;;;;;;;5098156;28;20669;-71
2022/02/02 10:34:17;;;;;;;12.73;8.27;;;;;;;;;;5098100;28;20656;-71
2022/02/02 10:36:45;;;;;;;12.77;7.70;;;;;;;;;;5097973;28;20726;-71
2022/02/02 10:39:16;;;;;;;12.17;8.33;;;;;;;;;;5098025;28;21011;-71
2022/02/02 10:41:48;;;;;;;10.07;8.07;;;;;;;;;;5116678;28;20205;-71
2022/02/02 10:44:31;;;;;;;15.03;10.07;;;;;;;;;;5104962;28;20197;-71
2022/02/02 10:47:10;;;;;;;15.27;9.43;;;;;;;;;;5098008;28;20722;-71
2022/02/02 10:49:53;;;;;;;13.37;9.23;;;;;;;;;;5098276;28;20440;-71
2022/02/02 10:52:37;;;;;;;13.13;9.43;;;;;;;;;;5098237;28;20443;-71
2022/02/02 10:55:31;;;;;;;13.50;9.77;;;;;;;;;;5100074;28;20549;-71
2022/02/02 10:58:19;;;;;;;16.23;9.80;;;;;;;;;;5097685;28;20212;-71
2022/02/02 11:00:54;;;;;;;13.40;9.23;;;;;;;;;;5117440;28;20196;-71
2022/02/02 11:06:38;;;;;;;15.97;9.80;;;;;;;;;;5097683;28;20221;-71
2022/02/02 11:09:07;;;;;;;14.40;9.90;;;;;;;;;;5103693;28;20559;-71
2022/02/02 11:11:39;;;;;;;13.93;9.47;;;;;;;;;;5108048;28;20568;-71
2022/02/02 11:14:10;;;;;;;11.50;8.63;;;;;;;;;;5116492;28;20205;-71
2022/02/02 11:16:39;;;;;;;12.67;8.83;;;;;;;;;;5122259;28;20227;-71
2022/02/02 11:19:08;;;;;;;12.67;9.23;;;;;;;;;;5103070;28;20213;-71
2022/02/02 11:21:38;;;;;;;13.17;8.30;;;;;;;;;;5105613;28;20814;-71
2022/02/02 11:24:26;;;;;;;14.27;9.10;;;;;;;;;;5122135;28;20762;-71
2022/02/02 11:26:54;;;;;;;14.57;9.37;;;;;;;;;;5115008;28;20223;-71
2022/02/02 11:29:41;;;;;;;12.83;10.03;;;;;;;;;;5101528;28;20201;-71
2022/02/02 11:32:10;;;;;;;14.67;9.20;;;;;;;;;;5101444;28;20570;-72
2022/02/02 11:34:40;;;;;;;15.43;9.43;;;;;;;;;;5101391;28;20595;-72
2022/02/02 11:37:12;;;;;;;16.97;9.67;;;;;;;;;;5101007;28;20239;-72
2022/02/02 11:39:46;;;;;;;12.60;9.83;;;;;;;;;;5104639;28;20269;-71
2022/02/02 11:42:54;;;;;;;13.70;10.03;;;;;;;;;;5103787;28;20205;-72
2022/02/02 11:45:42;;;;;;;13.47;9.73;;;;;;;;;;5058946;28;20244;-71
2022/02/02 11:48:17;;;;;;;11.87;8.17;;;;;;;;;;5043220;28;20208;-72
2022/02/02 11:50:46;;;;;;;11.83;8.17;;;;;;;;;;5101729;27;20556;-72
2022/02/02 11:53:29;;;;;;;11.37;8.00;;;;;;;;;;5109397;28;20201;-71
2022/02/02 11:56:06;;;;;;;12.00;8.90;;;;;;;;;;5107265;28;20304;-72
2022/02/02 11:58:35;;;;;;;10.40;8.03;;;;;;;;;;5105736;27;20197;-71
2022/02/02 12:01:10;;;;;;;14.97;8.47;;;;;;;;;;5101019;28;20236;-71
2022/02/02 12:03:45;;;;;;;11.77;8.37;;;;;;;;;;5100877;28;20211;-72
2022/02/02 12:06:28;;;;;;;11.60;8.00;;;;;;;;;;5101050;28;20278;-72
2022/02/02 12:09:05;;;;;;;11.33;8.40;;;;;;;;;;5118257;28;20200;-72
2022/02/02 12:48:58;;;;;;;10.47;7.27;;;;;;;;;;5100362;28;20201;-71
2022/02/02 12:57:09;;;;;;;13.23;7.30;;;;;;;;;;5105766;28;20229;-71
2022/02/02 12:59:53;;;;;;;11.17;6.53;;;;;;;;;;5099987;28;20229;-71
2022/02/02 13:02:23;;;;;;;10.83;7.30;;;;;;;;;;5114996;28;20215;-71
2022/02/02 13:04:53;;;;;;;11.17;7.07;;;;;;;;;;5120191;28;20236;-71
2022/02/02 13:07:27;;;;;;;8.67;7.40;;;;;;;;;;5104521;28;20622;-71
2022/02/02 13:09:56;;;;;;;12.13;7.13;;;;;;;;;;5099696;28;20686;-71
2022/02/02 13:12:25;;;;;;;10.30;7.30;;;;;;;;;;5099482;28;20210;-71
2022/02/02 13:17:57;;;;;;;12.00;6.43;;;;;;;;;;5096443;28;20228;-72
2022/02/02 13:20:35;;;;;;;12.00;6.60;;;;;;;;;;5100131;28;20231;-72
2022/02/02 13:23:07;;;;;;;8.53;6.60;;;;;;;;;;5102320;28;20205;-71
2022/02/02 13:25:36;;;;;;;8.53;6.20;;;;;;;;;;5099770;28;20202;-71
2022/02/02 13:28:06;;;;;;;8.47;6.47;;;;;;;;;;5106009;28;20210;-71
2022/02/02 13:30:40;;;;;;;9.17;6.43;;;;;;;;;;5120064;28;20209;-71
2022/02/02 13:33:16;;;;;;;9.70;6.10;;;;;;;;;;5099190;28;20546;-71
2022/02/02 13:35:55;;;;;;;8.10;6.30;;;;;;;;;;5098590;28;20208;-72
2022/02/02 13:38:38;;;;;;;8.10;6.63;;;;;;;;;;5098812;28;20595;-71
2022/02/02 13:44:24;;;;;;;7.33;5.80;;;;;;;;;;5023903;28;20726;-71
2022/02/02 13:47:22;;;;;;;7.13;5.77;;;;;;;;;;5099284;28;20221;-71
2022/02/02 13:53:23;;;;;;;9.10;5.80;;;;;;;;;;5093676;28;20208;-71
2022/02/02 13:56:12;;;;;;;10.00;5.50;;;;;;;;;;5108488;28;20216;-71
2022/02/02 13:58:46;;;;;;;8.97;6.23;;;;;;;;;;5117257;28;20200;-72
2022/02/02 14:01:21;;;;;;;9.53;5.90;;;;;;;;;;5119406;28;20231;-72
2022/02/02 14:04:06;;;;;;;10.43;5.80;;;;;;;;;;5105683;28;20674;-71
2022/02/02 14:06:47;;;;;;;10.10;5.47;;;;;;;;;;5098727;28;20598;-71
2022/02/02 14:09:19;;;;;;;7.87;5.03;;;;;;;;;;5102344;28;20197;-71
2022/02/02 14:26:07;;;;;;;2.60;2.33;;;;;;;;;;5118543;28;20211;-71
2022/02/02 14:31:24;;;;;;;2.17;1.97;;;;;;;;;;5098152;28;20207;-71
2022/02/02 14:33:54;;;;;;;3.63;1.87;;;;;;;;;;5111005;28;20220;-72
2022/02/02 14:36:27;;;;;;;1.97;1.33;;;;;;;;;;5118326;28;20267;-71
2022/02/02 14:39:07;;;;;;;1.73;1.47;;;;;;;;;;5112592;28;20193;-72
2022/02/02 14:41:39;;;;;;;2.03;1.70;;;;;;;;;;5098308;28;20221;-72
2022/02/02 14:44:13;;;;;;;1.87;1.70;;;;;;;;;;5111263;28;20197;-71
2022/02/02 14:46:49;;;;;;;1.67;1.50;;;;;;;;;;5118262;28;20674;-71
2022/02/02 14:49:21;;;;;;;2.40;2.20;;;;;;;;;;5100364;27;20250;-71
2022/02/02 14:52:00;;;;;;;4.53;1.90;;;;;;;;;;5098228;28;20198;-71
2022/02/02 14:54:50;;;;;;;2.67;1.97;;;;;;;;;;5115594;28;20204;-71
2022/02/02 15:28:41;;;;;;;1.93;1.47;;;;;;;;;;5105530;28;20208;-71
2022/02/02 15:31:09;;;;;;;2.63;1.20;;;;;;;;;;5117947;28;20223;-71
2022/02/02 15:33:37;;;;;;;2.63;0.93;;;;;;;;;;5106962;28;20208;-72
2022/02/02 15:36:28;;;;;;;1.90;1.00;;;;;;;;;;5097741;28;20236;-71
2022/02/02 15:38:57;;;;;;;1.37;1.27;;;;;;;;;;5105599;28;20294;-71
2022/02/02 15:41:32;;;;;;;1.83;1.00;;;;;;;;;;5097678;28;20228;-72
2022/02/02 15:55:16;;;;;;;1.50;0.90;;;;;;;;;;5099413;28;20209;-71
2022/02/02 16:03:33;;;;;;;1.50;1.10;;;;;;;;;;5028071;28;20204;-72
2022/02/02 16:06:08;;;;;;;3.13;1.40;;;;;;;;;;5075826;28;20225;-71
2022/02/02 16:08:37;;;;;;;1.50;1.40;;;;;;;;;;5101072;28;20207;-71
2022/02/02 16:11:15;;;;;;;2.33;1.50;;;;;;;;;;5101228;28;20671;-71
2022/02/02 16:13:46;;;;;;;4.40;1.20;;;;;;;;;;5100578;28;20287;-71
2022/02/02 16:16:37;;;;;;;0.90;0.83;;;;;;;;;;5100925;28;20230;-72
2022/02/02 16:19:14;;;;;;;2.97;1.13;;;;;;;;;;5108945;28;20197;-72
2022/02/02 16:34:02;;;;;;;0.70;0.70;;;;;;;;;;5116412;28;20193;-71
2022/02/02 16:35:58;;;;;;;1.33;1.23;;;;;;;;;;5100047;28;20209;-71
2022/02/02 16:38:29;;;;;;;2.73;1.20;;;;;;;;;;5104777;28;20648;-71
2022/02/02 16:40:58;;;;;;;3.03;0.80;;;;;;;;;;5107378;28;20302;-72
2022/02/02 16:43:25;;;;;;;1.83;1.20;;;;;;;;;;5100087;28;20205;-71
2022/02/02 16:45:53;;;;;;;2.33;1.10;;;;;;;;;;5100168;28;20607;-72
2022/02/02 16:48:24;;;;;;;1.23;0.80;;;;;;;;;;5100658;28;20205;-71
2022/02/02 16:50:54;;;;;;;2.23;1.47;;;;;;;;;;5100271;28;20204;-72
2022/02/02 16:53:29;;;;;;;0.90;0.90;;;;;;;;;;5100049;28;20216;-72
2022/02/02 16:56:05;;;;;;;0.83;0.83;;;;;;;;;;5109416;28;20556;-71
2022/02/02 17:31:39;;;;;;;2.23;1.10;;;;;;;;;;5119846;28;20208;-71
2022/02/02 17:34:21;;;;;;;2.23;1.30;;;;;;;;;;5108145;28;20202;-72
2022/02/02 17:36:56;;;;;;;4.73;1.47;;;;;;;;;;5099477;28;20240;-71
2022/02/02 17:39:34;;;;;;;1.87;1.30;;;;;;;;;;5100434;28;20205;-71
2022/02/02 17:45:20;;;;;;;7.50;1.67;;;;;;;;;;5084986;28;20205;-71
2022/02/02 18:12:52;;;;;;;1.63;1.13;;;;;;;;;;5098121;28;20194;-71
2022/02/02 18:20:49;;;;;;;2.03;1.20;;;;;;;;;;5089314;28;20205;-71
2022/02/02 18:23:25;;;;;;;1.80;1.40;;;;;;;;;;5098583;28;20222;-71
2022/02/02 18:26:07;;;;;;;3.77;1.50;;;;;;;;;;5098553;28;20229;-72
2022/02/02 18:28:46;;;;;;;2.17;1.70;;;;;;;;;;5098280;28;20197;-71
2022/02/02 18:31:30;;;;;;;2.17;1.57;;;;;;;;;;5098222;28;20217;-71
2022/02/02 18:34:10;;;;;;;1.83;1.50;;;;;;;;;;5098120;28;20207;-71
2022/02/02 18:36:45;;;;;;;1.83;1.40;;;;;;;;;;5098120;28;20236;-71
2022/02/02 18:45:25;;;;;;;2.30;1.70;;;;;;;;;;5098022;28;20209;-71
2022/02/02 18:48:07;;;;;;;3.77;1.73;;;;;;;;;;5109226;28;20217;-71
2022/02/02 18:50:58;;;;;;;4.47;1.70;;;;;;;;;;5118315;28;20215;-71
2022/02/02 18:53:55;;;;;;;5.60;2.10;;;;;;;;;;5104349;28;20194;-71
2022/02/02 18:56:37;;;;;;;3.57;1.93;;;;;;;;;;5106752;28;20225;-71
2022/02/02 18:59:18;;;;;;;3.73;1.77;;;;;;;;;;5114486;28;20230;-71
2022/02/02 19:01:57;;;;;;;2.40;1.50;;;;;;;;;;5118625;28;20247;-72
2022/02/02 19:04:47;;;;;;;3.73;1.77;;;;;;;;;;5115838;28;20204;-71
2022/02/02 19:37:41;;;;;;;6.40;4.43;;;;;;;;;;5121715;28;20236;-71
2022/02/02 19:40:21;;;;;;;7.20;3.30;;;;;;;;;;5112651;28;20211;-71
2022/02/02 19:56:53;;;;;;;5.40;3.40;;;;;;;;;;5107797;28;20221;-71
2022/02/02 20:02:32;;;;;;;4.70;3.40;;;;;;;;;;5101251;28;20209;-71
2022/02/02 20:08:04;;;;;;;5.47;3.77;;;;;;;;;;5115003;28;20231;-71
2022/02/02 20:10:44;;;;;;;3.97;3.10;;;;;;;;;;5101270;28;20269;-71
2022/02/02 20:13:12;;;;;;;5.07;3.97;;;;;;;;;;5103087;28;20678;-71
2022/02/02 20:15:40;;;;;;;6.57;3.97;;;;;;;;;;5121393;28;20200;-71
2022/02/02 20:18:13;;;;;;;5.70;3.77;;;;;;;;;;5119912;28;20210;-71
2022/02/02 20:20:44;;;;;;;4.03;3.17;;;;;;;;;;5121232;28;20215;-71
2022/02/02 20:23:13;;;;;;;5.30;3.40;;;;;;;;;;5121316;28;20228;-71
2022/02/02 20:25:47;;;;;;;5.13;3.13;;;;;;;;;;5100627;28;20227;-71
2022/02/02 20:28:15;;;;;;;5.23;3.30;;;;;;;;;;5100368;28;20218;-71
2022/02/02 20:30:43;;;;;;;4.30;3.43;;;;;;;;;;5100822;28;20210;-71
2022/02/02 20:33:13;;;;;;;5.87;3.10;;;;;;;;;;5100281;28;20213;-71
2022/02/02 20:35:43;;;;;;;3.33;3.00;;;;;;;;;;5100649;28;20212;-71
2022/02/02 20:38:11;;;;;;;6.30;3.57;;;;;;;;;;5100467;28;20242;-71
2022/02/02 20:40:39;;;;;;;4.63;2.90;;;;;;;;;;5120744;28;20209;-70
2022/02/02 20:43:11;;;;;;;3.80;2.97;;;;;;;;;;5120461;28;20220;-71
2022/02/02 21:05:20;;;;;;;2.80;2.47;;;;;;;;;;5112544;28;20568;-71
2022/02/02 21:08:17;;;;;;;3.67;2.50;;;;;;;;;;5120219;28;20243;-71
2022/02/02 21:10:44;;;;;;;3.00;2.50;;;;;;;;;;5100038;28;20212;-71
2022/02/02 21:15:58;;;;;;;2.73;1.93;;;;;;;;;;5099796;28;20689;-71
2022/02/02 21:18:32;;;;;;;4.70;2.30;;;;;;;;;;5102572;28;20197;-71
2022/02/02 21:21:04;;;;;;;2.10;1.90;;;;;;;;;;5108426;28;20235;-71
2022/02/02 21:23:42;;;;;;;2.93;2.30;;;;;;;;;;5120100;28;20221;-71
2022/02/02 21:26:32;;;;;;;3.20;1.87;;;;;;;;;;5119858;28;20223;-71
2022/02/02 21:29:00;;;;;;;3.53;1.83;;;;;;;;;;5119858;28;20232;-71
2022/02/02 21:31:28;;;;;;;5.13;2.83;;;;;;;;;;5115762;28;20200;-71
2022/02/02 21:33:56;;;;;;;2.53;1.80;;;;;;;;;;5119474;28;20196;-71
2022/02/02 21:36:24;;;;;;;3.37;2.10;;;;;;;;;;5119328;28;20217;-70
2022/02/02 21:38:58;;;;;;;4.27;2.07;;;;;;;;;;5115156;27;20193;-71
2022/02/02 21:41:32;;;;;;;1.80;1.60;;;;;;;;;;5112816;27;20674;-71
2022/02/02 21:44:00;;;;;;;5.23;2.03;;;;;;;;;;5116627;28;20212;-71
2022/02/02 21:46:28;;;;;;;2.33;1.63;;;;;;;;;;5119334;28;20286;-71
2022/02/02 21:48:59;;;;;;;1.90;1.73;;;;;;;;;;5119123;28;20227;-70
2022/02/02 21:51:28;;;;;;;3.53;1.80;;;;;;;;;;5112692;28;20205;-71
2022/02/02 21:53:57;;;;;;;2.60;1.90;;;;;;;;;;5114429;28;20201;-71
2022/02/02 21:56:26;;;;;;;5.00;1.90;;;;;;;;;;5118073;28;20220;-71
2022/02/02 21:58:54;;;;;;;2.43;1.90;;;;;;;;;;5118840;28;20205;-71
2022/02/02 22:01:22;;;;;;;4.50;2.03;;;;;;;;;;5113153;28;20202;-71
2022/02/02 22:03:50;;;;;;;6.10;2.10;;;;;;;;;;5098629;28;20316;-71
2022/02/02 22:06:18;;;;;;;1.80;1.70;;;;;;;;;;5098516;28;20591;-71
2022/02/02 22:08:46;;;;;;;1.83;1.73;;;;;;;;;;5098713;28;20231;-70
2022/02/02 22:11:15;;;;;;;3.03;1.60;;;;;;;;;;5098453;28;20205;-71
2022/02/02 22:13:47;;;;;;;1.70;1.60;;;;;;;;;;5098505;28;20205;-71
2022/02/02 22:16:19;;;;;;;2.07;1.90;;;;;;;;;;5103524;28;20225;-71
2022/02/02 22:18:48;;;;;;;2.17;1.97;;;;;;;;;;5112747;28;20240;-71
2022/02/02 22:21:16;;;;;;;1.97;1.43;;;;;;;;;;5100072;28;20217;-72
2022/02/02 22:23:44;;;;;;;2.63;1.70;;;;;;;;;;5098642;28;20231;-71
2022/02/02 22:26:14;;;;;;;2.30;1.80;;;;;;;;;;5099504;28;20225;-71
2022/02/02 22:28:44;;;;;;;2.43;1.83;;;;;;;;;;5098811;28;20214;-71
2022/02/02 22:31:13;;;;;;;2.10;1.80;;;;;;;;;;5098868;28;20273;-71
2022/02/02 22:33:40;;;;;;;2.97;1.97;;;;;;;;;;5098280;28;20227;-71
2022/02/02 22:36:13;;;;;;;1.33;1.30;;;;;;;;;;5098570;28;20257;-71
2022/02/02 22:38:43;;;;;;;4.17;1.93;;;;;;;;;;5103277;28;20224;-71
2022/02/02 22:41:11;;;;;;;2.90;1.80;;;;;;;;;;5118246;28;20205;-71
2022/02/02 22:43:45;;;;;;;1.77;1.67;;;;;;;;;;5104837;28;20221;-71
2022/02/02 22:46:15;;;;;;;2.30;1.60;;;;;;;;;;5105054;28;20220;-71
2022/02/02 22:48:44;;;;;;;1.67;1.57;;;;;;;;;;5104465;28;20664;-71
2022/02/02 22:51:12;;;;;;;2.17;1.63;;;;;;;;;;5098359;28;20208;-71
2022/02/02 22:53:40;;;;;;;2.40;1.47;;;;;;;;;;5097857;28;20214;-71
2022/02/02 22:56:08;;;;;;;2.27;1.83;;;;;;;;;;5107942;28;20316;-71
2022/02/02 22:58:37;;;;;;;2.20;1.57;;;;;;;;;;5116408;28;20196;-71
2022/02/02 23:01:05;;;;;;;6.57;1.83;;;;;;;;;;5118458;28;20204;-71
2022/02/02 23:03:35;;;;;;;2.17;1.77;;;;;;;;;;5105425;28;20573;-71
2022/02/02 23:06:03;;;;;;;1.53;1.43;;;;;;;;;;5098040;28;20226;-71